Time;durP1;ratioP1;P1;durP2;ratioP2;P2;SDS_P1;SDS_P2;PMS_P1;PMS_P2;Temp;Humidity;BMP_temperature;BMP_pressure;BME280_temperature;BME280_humidity;BME280_pressure;Samples;Min_cycle;Max_cycle;Signal;HPM_P1;HPM_P2
2022/06/14 00:01:52;;;;;;;;;;;;;;;-149.78;100.00;50125.28;5100317;28;20422;-70
2022/06/14 00:04:18;;;;;;;;;;;;;;;-149.78;100.00;50119.41;5101456;28;19927;-70
2022/06/14 00:06:44;;;;;;;;;;;;;;;-149.78;100.00;50123.34;5102060;28;19920;-70
2022/06/14 00:09:10;;;;;;;;;;;;;;;-149.78;100.00;50123.34;5100398;28;19940;-70
2022/06/14 00:11:37;;;;;;;;;;;;;;;-149.78;100.00;50162.44;5100483;28;20385;-70
2022/06/14 00:14:06;;;;;;;;;;;;;;;-149.78;100.00;50103.78;5099090;28;19924;-70
2022/06/14 00:16:32;;;;;;;;;;;;;;;-149.78;100.00;50131.16;5100875;28;19996;-70
2022/06/14 00:18:58;;;;;;;;;;;;;;;-149.78;100.00;50135.06;5102986;28;19945;-70
2022/06/14 00:21:24;;;;;;;;;;;;;;;-149.78;100.00;50119.41;5100779;28;20024;-70
2022/06/14 00:23:49;;;;;;;;;;;;;;;-149.78;100.00;50154.63;5102381;28;19927;-70
2022/06/14 00:26:15;;;;;;;;;;;;;;;-149.78;100.00;50133.09;5087873;28;20377;-70
2022/06/14 00:28:41;;;;;;;;;;;;;;;-149.78;100.00;50146.81;5088385;28;20004;-70
2022/06/14 00:31:18;;;;;;;;;;;;;;;-149.78;100.00;50127.25;5103517;28;19924;-70
2022/06/14 00:33:44;;;;;;;;;;;;;;;-149.78;100.00;50162.44;5104762;28;19953;-70
2022/06/14 00:36:18;;;;;;;;;;;;;;;-149.78;100.00;50156.56;5107103;28;20044;-70
2022/06/14 00:38:44;;;;;;;;;;;;;;;-149.78;100.00;50138.97;5105002;28;19916;-70
2022/06/14 00:41:13;;;;;;;;;;;;;;;-149.78;100.00;50178.09;5105215;28;19930;-70
2022/06/14 00:43:39;;;;;;;;;;;;;;;-149.78;100.00;50166.34;5105388;28;19919;-70
2022/06/14 00:46:06;;;;;;;;;;;;;;;-149.78;100.00;50154.63;5102778;28;19934;-70
2022/06/14 00:48:33;;;;;;;;;;;;;;;-149.78;100.00;50170.25;5110710;28;19916;-70
2022/06/14 00:51:01;;;;;;;;;;;;;;;-149.78;100.00;50170.25;5106862;28;19926;-70
2022/06/14 00:53:32;;;;;;;;;;;;;;;-149.78;100.00;50142.88;5104785;28;19927;-70
2022/06/14 00:56:02;;;;;;;;;;;;;;;-149.78;100.00;50178.09;5106120;28;20022;-70
2022/06/14 00:58:31;;;;;;;;;;;;;;;-149.78;100.00;50115.50;5109031;28;19923;-69
2022/06/14 01:01:02;;;;;;;;;;;;;;;-149.78;100.00;50146.81;5104118;28;19924;-70
2022/06/14 01:03:42;;;;;;;;;;;;;;;-149.78;100.00;50148.75;5108932;28;19920;-70
2022/06/14 01:06:07;;;;;;;;;;;;;;;-149.78;100.00;50135.06;5106842;28;19924;-69
2022/06/14 01:08:36;;;;;;;;;;;;;;;-149.78;100.00;50150.72;5101288;28;19940;-70
2022/06/14 01:11:02;;;;;;;;;;;;;;;-149.78;100.00;50131.16;5104862;28;19916;-74
2022/06/14 01:13:28;;;;;;;;;;;;;;;-149.78;100.00;50160.50;5101700;28;19920;-74
2022/06/14 01:15:54;;;;;;;;;;;;;;;-149.78;100.00;50180.03;5105735;28;19991;-70
2022/06/14 01:18:19;;;;;;;;;;;;;;;-149.78;100.00;50162.44;5108387;28;19928;-70
2022/06/14 01:20:45;;;;;;;;;;;;;;;-149.78;100.00;50131.16;5103610;28;20432;-70
2022/06/14 01:23:16;;;;;;;;;;;;;;;-149.78;100.00;50150.72;5108100;28;19919;-70
2022/06/14 01:25:50;;;;;;;;;;;;;;;-149.78;100.00;50140.94;5105653;28;19916;-70
2022/06/14 01:28:18;;;;;;;;;;;;;;;-149.78;100.00;50162.44;5102279;28;20428;-70
2022/06/14 01:30:46;;;;;;;;;;;;;;;-149.78;100.00;50158.53;5101789;28;19962;-70
2022/06/14 01:33:13;;;;;;;;;;;;;;;-149.78;100.00;50142.88;5099314;28;19927;-69
2022/06/14 01:39:19;;;;;;;;;;;;;;;-149.78;100.00;50135.06;5101343;28;19938;-69
2022/06/14 01:42:13;;;;;;;;;;;;;;;-149.78;100.00;50158.53;5102987;28;20313;-69
2022/06/14 01:45:00;;;;;;;;;;;;;;;-149.78;100.00;50166.34;5099840;28;20297;-70
2022/06/14 01:47:54;;;;;;;;;;;;;;;-149.78;100.00;50138.97;5091541;28;20310;-70
2022/06/14 01:53:37;;;;;;;;;;;;;;;-149.78;100.00;50148.75;5100966;28;19927;-70
2022/06/14 01:56:05;;;;;;;;;;;;;;;-149.78;100.00;50138.97;5102173;28;19919;-69
2022/06/14 01:58:49;;;;;;;;;;;;;;;-149.78;100.00;50131.16;5101797;28;20068;-70
2022/06/14 02:01:14;;;;;;;;;;;;;;;-149.78;100.00;50129.19;5098642;28;19927;-69
2022/06/14 02:06:38;;;;;;;;;;;;;;;-149.78;100.00;50154.63;5098244;28;20015;-69
2022/06/14 02:09:11;;;;;;;;;;;;;;;-149.78;100.00;50127.25;5098630;28;20599;-69
2022/06/14 02:11:36;;;;;;;;;;;;;;;-149.78;100.00;50170.25;5101444;28;20032;-69
2022/06/14 02:14:09;;;;;;;;;;;;;;;-149.78;100.00;50166.34;5101061;28;20018;-68
2022/06/14 02:16:42;;;;;;;;;;;;;;;-149.78;100.00;50146.81;5095872;28;20521;-70
2022/06/14 02:19:07;;;;;;;;;;;;;;;-149.78;100.00;50158.53;5102572;28;20503;-69
2022/06/14 02:21:53;;;;;;;;;;;;;;;-149.78;100.00;50144.84;5100672;28;19916;-70
2022/06/14 02:24:22;;;;;;;;;;;;;;;-149.78;100.00;50119.41;5097960;28;19930;-69
2022/06/14 02:26:52;;;;;;;;;;;;;;;-149.78;100.00;50166.34;5098015;28;19923;-69
2022/06/14 02:29:21;;;;;;;;;;;;;;;-149.78;100.00;50162.44;5100398;28;19924;-70
2022/06/14 02:32:01;;;;;;;;;;;;;;;-149.78;100.00;50142.88;5096608;28;19950;-69
2022/06/14 02:34:33;;;;;;;;;;;;;;;-149.78;100.00;50135.06;5095597;28;19994;-70
2022/06/14 02:37:09;;;;;;;;;;;;;;;-149.78;100.00;50178.09;5101087;28;19919;-70
2022/06/14 02:39:38;;;;;;;;;;;;;;;-149.78;100.00;50119.41;5096530;28;20371;-70
2022/06/14 02:42:07;;;;;;;;;;;;;;;-149.78;100.00;50150.72;5099389;28;19939;-69
2022/06/14 02:44:33;;;;;;;;;;;;;;;-149.78;100.00;50162.44;5101841;28;20657;-70
2022/06/14 02:47:01;;;;;;;;;;;;;;;-149.78;100.00;50127.25;5101740;28;19916;-70
2022/06/14 02:49:30;;;;;;;;;;;;;;;-149.78;100.00;50137.03;5102194;28;19987;-69
2022/06/14 02:51:59;;;;;;;;;;;;;;;-149.78;100.00;50140.94;5099974;28;19924;-70
2022/06/14 02:54:31;;;;;;;;;;;;;;;-149.78;100.00;50123.34;5100135;28;19983;-69
2022/06/14 02:57:05;;;;;;;;;;;;;;;-149.78;100.00;50180.03;5101051;28;19920;-69
2022/06/14 02:59:33;;;;;;;;;;;;;;;-149.78;100.00;50166.34;5097127;28;19983;-70
2022/06/14 03:02:01;;;;;;;;;;;;;;;-149.78;100.00;50146.81;5101750;28;19961;-70
2022/06/14 03:04:34;;;;;;;;;;;;;;;-149.78;100.00;50138.97;5095009;28;19924;-70
2022/06/14 03:07:04;;;;;;;;;;;;;;;-149.78;100.00;50152.66;5099971;28;20019;-70
2022/06/14 03:09:31;;;;;;;;;;;;;;;-149.78;100.00;50185.91;5100395;28;19924;-70
2022/06/14 03:12:05;;;;;;;;;;;;;;;-149.78;100.00;50137.03;5100777;28;19938;-69
2022/06/14 03:14:46;;;;;;;;;;;;;;;-149.78;100.00;50150.72;5099933;28;19919;-70
2022/06/14 03:17:17;;;;;;;;;;;;;;;-149.78;100.00;50178.09;5099227;28;19966;-70
2022/06/14 03:20:07;;;;;;;;;;;;;;;-149.78;100.00;50170.25;5097534;28;19967;-70
2022/06/14 03:22:32;;;;;;;;;;;;;;;-149.78;100.00;50178.09;5099037;28;19923;-70
2022/06/14 03:25:06;;;;;;;;;;;;;;;-149.78;100.00;50174.19;5099596;28;19965;-70
2022/06/14 03:27:41;;;;;;;;;;;;;;;-149.78;100.00;50154.63;5096620;28;19923;-70
2022/06/14 03:30:12;;;;;;;;;;;;;;;-149.78;100.00;50135.06;5098995;28;19927;-70
2022/06/14 03:32:38;;;;;;;;;;;;;;;-149.78;100.00;50137.03;5096007;28;20675;-70
2022/06/14 03:35:07;;;;;;;;;;;;;;;-149.78;100.00;50150.72;5100522;28;20290;-70
2022/06/14 03:37:33;;;;;;;;;;;;;;;-149.78;100.00;50142.88;5102406;28;19916;-70
2022/06/14 03:40:00;;;;;;;;;;;;;;;-149.78;100.00;50182.00;5104942;28;19924;-69
2022/06/14 03:42:26;;;;;;;;;;;;;;;-149.78;100.00;50166.34;5104196;28;20410;-70
2022/06/14 03:44:52;;;;;;;;;;;;;;;-149.78;100.00;50135.06;5104510;28;19927;-69
2022/06/14 03:47:27;;;;;;;;;;;;;;;-149.78;100.00;50140.94;5103158;28;19924;-69
2022/06/14 03:50:13;;;;;;;;;;;;;;;-149.78;100.00;50154.63;5103185;28;20124;-69
2022/06/14 03:52:39;;;;;;;;;;;;;;;-149.78;100.00;50182.00;5087068;28;20019;-70
2022/06/14 03:55:23;;;;;;;;;;;;;;;-149.78;100.00;50142.88;5104996;28;20406;-69
2022/06/14 03:58:04;;;;;;;;;;;;;;;-149.78;100.00;50166.34;5103394;28;19931;-70
2022/06/14 04:00:39;;;;;;;;;;;;;;;-149.78;100.00;50166.34;5102176;28;20006;-70
2022/06/14 04:03:11;;;;;;;;;;;;;;;-149.78;100.00;50144.84;5097384;28;20006;-70
2022/06/14 04:05:43;;;;;;;;;;;;;;;-149.78;100.00;50174.19;5101419;28;19985;-70
2022/06/14 04:08:27;;;;;;;;;;;;;;;-149.78;100.00;50197.66;5102796;28;19966;-69
2022/06/14 04:11:15;;;;;;;;;;;;;;;-149.78;100.00;50182.00;5102891;28;20392;-69
2022/06/14 04:14:00;;;;;;;;;;;;;;;-149.78;100.00;50170.25;5082047;28;19928;-70
2022/06/14 04:16:34;;;;;;;;;;;;;;;-149.78;100.00;50138.97;5103364;28;19923;-70
2022/06/14 04:19:03;;;;;;;;;;;;;;;-149.78;100.00;50178.09;5103489;28;20008;-70
2022/06/14 04:21:32;;;;;;;;;;;;;;;-149.78;100.00;50146.81;5102690;28;19919;-70
2022/06/14 04:24:04;;;;;;;;;;;;;;;-149.78;100.00;50138.97;5100510;28;19919;-70
2022/06/14 04:26:48;;;;;;;;;;;;;;;-149.78;100.00;50154.63;5102851;28;20010;-70
2022/06/14 04:29:21;;;;;;;;;;;;;;;-149.78;100.00;50185.91;5101454;28;19924;-70
2022/06/14 04:31:49;;;;;;;;;;;;;;;-149.78;100.00;50150.72;5101569;28;19924;-69
2022/06/14 04:34:21;;;;;;;;;;;;;;;-149.78;100.00;50166.34;5100840;28;19928;-70
2022/06/14 04:36:55;;;;;;;;;;;;;;;-149.78;100.00;50140.94;5103312;28;19923;-70
2022/06/14 04:39:27;;;;;;;;;;;;;;;-149.78;100.00;50164.41;5100567;28;20386;-69
2022/06/14 04:41:56;;;;;;;;;;;;;;;-149.78;100.00;50174.19;5101117;28;19974;-69
2022/06/14 04:44:25;;;;;;;;;;;;;;;-149.78;100.00;50123.34;5101506;28;19923;-70
2022/06/14 04:46:56;;;;;;;;;;;;;;;-149.78;100.00;50135.06;5102130;28;19924;-69
2022/06/14 04:49:34;;;;;;;;;;;;;;;-149.78;100.00;50140.94;5102323;28;20309;-70
2022/06/14 04:51:59;;;;;;;;;;;;;;;-149.78;100.00;50162.44;5100784;28;20490;-70
2022/06/14 04:54:33;;;;;;;;;;;;;;;-149.78;100.00;50197.66;5103157;28;19923;-69
2022/06/14 04:57:07;;;;;;;;;;;;;;;-149.78;100.00;50162.44;5098918;28;20038;-69
2022/06/14 04:59:37;;;;;;;;;;;;;;;-149.78;100.00;50158.53;5102822;28;19935;-70
2022/06/14 05:02:12;;;;;;;;;;;;;;;-149.78;100.00;50154.63;5100945;28;20700;-69
2022/06/14 05:04:40;;;;;;;;;;;;;;;-149.78;100.00;50113.56;5103742;28;20305;-70
2022/06/14 05:07:11;;;;;;;;;;;;;;;-149.78;100.00;50182.00;5100708;28;20106;-70
2022/06/14 05:09:45;;;;;;;;;;;;;;;-149.78;100.00;50154.63;5101676;28;19920;-69
2022/06/14 05:12:14;;;;;;;;;;;;;;;-149.78;100.00;50162.44;5100899;28;19920;-69
2022/06/14 05:15:00;;;;;;;;;;;;;;;-149.78;100.00;50166.34;5099539;28;19923;-69
2022/06/14 05:17:29;;;;;;;;;;;;;;;-149.78;100.00;50162.44;5101613;28;20640;-69
2022/06/14 05:19:54;;;;;;;;;;;;;;;-149.78;100.00;50127.25;5101450;28;19923;-69
2022/06/14 05:22:25;;;;;;;;;;;;;;;-149.78;100.00;50172.22;5102090;28;20483;-70
2022/06/14 05:24:51;;;;;;;;;;;;;;;-149.78;100.00;50138.97;5101306;28;20426;-71
2022/06/14 05:27:35;;;;;;;;;;;;;;;-149.78;100.00;50131.16;5101824;28;20022;-70
2022/06/14 05:30:00;;;;;;;;;;;;;;;-149.78;100.00;50127.25;5101266;28;21122;-69
2022/06/14 05:32:30;;;;;;;;;;;;;;;-149.78;100.00;50107.69;5101242;28;19988;-69
2022/06/14 05:34:59;;;;;;;;;;;;;;;-149.78;100.00;50150.72;5100801;28;20274;-70
2022/06/14 05:37:30;;;;;;;;;;;;;;;-149.78;100.00;50138.97;5100765;28;20665;-69
2022/06/14 05:39:58;;;;;;;;;;;;;;;-149.78;100.00;50146.81;5098521;28;19930;-70
2022/06/14 05:42:29;;;;;;;;;;;;;;;-149.78;100.00;50174.19;5101954;28;19919;-70
2022/06/14 05:44:58;;;;;;;;;;;;;;;-149.78;100.00;50123.34;5099894;28;19924;-70
2022/06/14 05:47:30;;;;;;;;;;;;;;;-149.78;100.00;50142.88;5096999;28;19924;-70
2022/06/14 05:50:01;;;;;;;;;;;;;;;-149.78;100.00;50146.81;5099226;28;19924;-70
2022/06/14 05:52:30;;;;;;;;;;;;;;;-149.78;100.00;50154.63;5101087;28;19928;-69
2022/06/14 05:55:05;;;;;;;;;;;;;;;-149.78;100.00;50138.97;5096270;28;20322;-70
2022/06/14 05:57:40;;;;;;;;;;;;;;;-149.78;100.00;50103.78;5098987;28;19934;-70
2022/06/14 06:00:05;;;;;;;;;;;;;;;-149.78;100.00;50131.16;5098583;28;19931;-70
2022/06/14 06:02:31;;;;;;;;;;;;;;;-149.78;100.00;50121.38;5100909;28;19924;-69
2022/06/14 06:05:32;;;;;;;;;;;;;;;-149.78;100.00;50150.72;5098553;28;19916;-70
2022/06/14 06:08:16;;;;;;;;;;;;;;;-149.78;100.00;50121.38;5054335;28;20478;-69
2022/06/14 06:10:45;;;;;;;;;;;;;;;-149.78;100.00;50127.25;5093435;28;19923;-69
2022/06/14 06:13:13;;;;;;;;;;;;;;;-149.78;100.00;50117.47;5099025;28;19994;-69
2022/06/14 06:15:49;;;;;;;;;;;;;;;-149.78;100.00;50129.19;5096500;28;19936;-70
2022/06/14 06:18:31;;;;;;;;;;;;;;;-149.78;100.00;50135.06;5096528;28;19961;-70
2022/06/14 06:21:18;;;;;;;;;;;;;;;-149.78;100.00;50095.94;5099031;28;20045;-70
2022/06/14 06:23:48;;;;;;;;;;;;;;;-149.78;100.00;50103.78;5099311;28;19963;-74
2022/06/14 06:26:16;;;;;;;;;;;;;;;-149.78;100.00;50115.50;5100945;28;19967;-70
2022/06/14 06:28:46;;;;;;;;;;;;;;;-149.78;100.00;50127.25;5094590;28;19928;-69
2022/06/14 06:31:21;;;;;;;;;;;;;;;-149.78;100.00;50111.59;5099059;28;19943;-70
2022/06/14 06:33:49;;;;;;;;;;;;;;;-149.78;100.00;50084.22;5097421;28;20017;-70
2022/06/14 06:36:33;;;;;;;;;;;;;;;-149.78;100.00;50105.72;5099585;28;20397;-70
2022/06/14 06:38:58;;;;;;;;;;;;;;;-149.78;100.00;50084.22;5090130;28;19920;-70
2022/06/14 06:44:28;;;;;;;;;;;;;;;-149.78;100.00;50074.44;5081755;28;19962;-70
2022/06/14 06:47:06;;;;;;;;;;;;;;;-149.78;100.00;50084.22;5087367;28;19982;-70
2022/06/14 06:49:36;;;;;;;;;;;;;;;-149.78;100.00;50080.31;5073789;28;19926;-70
2022/06/14 06:52:03;;;;;;;;;;;;;;;-149.78;97.01;50064.66;5074252;28;19931;-70
2022/06/14 06:54:56;;;;;;;;;;;;;;;-149.78;91.39;50084.22;5077766;28;20348;-70
2022/06/14 06:57:23;;;;;;;;;;;;;;;-149.78;81.47;50064.66;5076758;28;20325;-70
2022/06/14 06:59:51;;;;;;;;;;;;;;;-149.78;98.34;50058.78;5088604;28;19924;-71
2022/06/14 07:02:20;;;;;;;;;;;;;;;-149.78;89.54;50092.03;5079754;28;19920;-69
2022/06/14 07:05:03;;;;;;;;;;;;;;;-149.78;91.20;50041.19;5079985;28;19999;-70
2022/06/14 07:07:32;;;;;;;;;;;;;;;-149.78;85.69;50029.47;5086848;28;20385;-70
2022/06/14 07:10:01;;;;;;;;;;;;;;;-149.78;84.14;50039.25;5081309;28;19926;-71
2022/06/14 07:12:29;;;;;;;;;;;;;;;-149.78;79.01;50056.84;5070102;28;20178;-70
2022/06/14 07:15:14;;;;;;;;;;;;;;;-149.78;73.46;50037.28;5085204;28;20004;-70
2022/06/14 07:17:43;;;;;;;;;;;;;;;-149.78;63.42;50017.72;5087625;28;19919;-70
2022/06/14 07:20:14;;;;;;;;;;;;;;;-149.78;58.16;50033.38;5082697;28;20041;-71
2022/06/14 07:22:44;;;;;;;;;;;;;;;-149.78;57.66;50025.56;5088123;28;19916;-69
2022/06/14 07:25:16;;;;;;;;;;;;;;;-149.78;59.68;50037.28;5086074;28;20378;-70
2022/06/14 07:27:50;;;;;;;;;;;;;;;-149.78;59.58;50045.09;5094193;28;20355;-70
2022/06/14 07:30:19;;;;;;;;;;;;;;;-149.78;58.02;50037.28;5093487;28;19923;-71
2022/06/14 07:32:47;;;;;;;;;;;;;;;-149.78;53.84;50033.38;5087936;28;20255;-71
2022/06/14 07:35:14;;;;;;;;;;;;;;;-149.78;54.78;49982.53;5081325;28;19931;-71
2022/06/14 07:37:57;;;;;;;;;;;;;;;-149.78;55.13;50029.47;5084117;28;19923;-70
2022/06/14 07:40:32;;;;;;;;;;;;;;;-149.78;55.48;50021.63;5084020;28;20035;-71
2022/06/14 07:43:04;;;;;;;;;;;;;;;-149.78;58.32;50035.34;5087630;28;20003;-70
2022/06/14 07:45:33;;;;;;;;;;;;;;;-149.78;61.16;50045.09;5077268;28;19927;-70
2022/06/14 07:48:07;;;;;;;;;;;;;;;-149.78;59.19;50078.34;5092502;28;20380;-70
2022/06/14 07:50:36;;;;;;;;;;;;;;;-149.78;65.06;50080.31;5084119;28;20367;-70
2022/06/14 07:53:09;;;;;;;;;;;;;;;-149.78;64.72;50095.94;5081298;28;20398;-71
2022/06/14 07:55:38;;;;;;;;;;;;;;;-149.78;76.46;50041.19;5092710;28;20322;-70
2022/06/14 07:58:08;;;;;;;;;;;;;;;-149.78;72.60;50041.19;5078319;28;20624;-70
2022/06/14 08:03:23;;;;;;;;;;;;;;;-149.78;78.90;50064.66;5085205;28;19923;-70
2022/06/14 08:05:50;;;;;;;;;;;;;;;-149.78;76.67;50076.41;5094202;28;20649;-70
2022/06/14 08:08:21;;;;;;;;;;;;;;;-149.78;73.37;50072.50;5087380;28;19982;-70
2022/06/14 08:10:49;;;;;;;;;;;;;;;-149.78;56.51;49951.25;5095036;28;19916;-70
2022/06/14 08:13:19;;;;;;;;;;;;;;;-149.78;49.68;49951.25;5083024;28;19955;-68
2022/06/14 08:15:47;;;;;;;;;;;;;;;-149.78;48.51;49962.97;5081199;28;19943;-71
2022/06/14 08:18:16;;;;;;;;;;;;;;;-149.78;53.06;49935.59;5077390;28;20012;-70
2022/06/14 08:20:48;;;;;;;;;;;;;;;-149.78;49.64;49908.22;5077824;28;19938;-70
2022/06/14 08:23:20;;;;;;;;;;;;;;;-149.78;41.25;49896.50;5080212;28;19969;-70
2022/06/14 08:25:49;;;;;;;;;;;;;;;-149.78;39.02;49867.16;5085412;28;19969;-68
2022/06/14 08:28:18;;;;;;;;;;;;;;;-149.78;36.88;49804.59;5088511;28;19916;-68
2022/06/14 08:30:57;;;;;;;;;;;;;;;-149.78;35.34;49775.25;5087159;28;19951;-68
2022/06/14 08:33:27;;;;;;;;;;;;;;;-149.78;35.92;49824.13;5090077;28;19920;-68
2022/06/14 08:35:55;;;;;;;;;;;;;;;-149.78;34.93;49831.97;5085174;28;19924;-68
2022/06/14 08:38:29;;;;;;;;;;;;;;;-149.78;36.88;49833.91;5089381;28;19917;-69
2022/06/14 08:40:54;;;;;;;;;;;;;;;-149.78;36.40;49779.16;5086907;28;19942;-68
2022/06/14 08:43:29;;;;;;;;;;;;;;;-149.78;33.80;49755.69;5090756;28;19916;-69
2022/06/14 08:45:57;;;;;;;;;;;;;;;-149.78;35.03;49853.47;5083849;28;19916;-68
2022/06/14 08:48:26;;;;;;;;;;;;;;;-149.78;36.06;49837.81;5077806;28;19917;-69
2022/06/14 08:51:03;;;;;;;;;;;;;;;-149.78;38.42;49865.19;5085726;28;19924;-69
2022/06/14 08:53:31;;;;;;;;;;;;;;;-149.78;37.06;49874.97;5089733;28;19931;-68
2022/06/14 08:55:59;;;;;;;;;;;;;;;-149.78;35.48;49890.63;5080580;28;19921;-68
2022/06/14 08:58:33;;;;;;;;;;;;;;;-149.78;37.74;49896.50;5078492;28;19948;-70
2022/06/14 09:01:09;;;;;;;;;;;;;;;-149.78;39.26;49892.56;5080556;28;20040;-70
2022/06/14 09:03:53;;;;;;;;;;;;;;;-149.78;43.35;49927.78;5088306;28;19917;-70
2022/06/14 09:06:37;;;;;;;;;;;;;;;-149.78;45.52;49955.16;5084452;28;19975;-70
2022/06/14 09:09:09;;;;;;;;;;;;;;;-149.78;45.06;49976.66;5086931;28;20022;-70
2022/06/14 09:11:37;;;;;;;;;;;;;;;-149.78;49.59;49937.56;5082845;28;19923;-70
2022/06/14 09:14:21;;;;;;;;;;;;;;;-149.78;45.45;49951.25;5079153;28;19916;-70
2022/06/14 09:17:05;;;;;;;;;;;;;;;-149.78;46.89;49959.06;5084174;28;19927;-70
2022/06/14 09:19:46;;;;;;;;;;;;;;;-149.78;46.19;49921.91;5088914;28;19916;-70
2022/06/14 09:22:30;;;;;;;;;;;;;;;-149.78;46.25;49978.63;5081397;28;20007;-70
2022/06/14 09:25:02;;;;;;;;;;;;;;;-149.78;47.83;49947.34;5078941;28;20314;-70
2022/06/14 09:27:38;;;;;;;;;;;;;;;-149.78;49.43;49953.19;5083857;28;19973;-70
2022/06/14 09:30:12;;;;;;;;;;;;;;;-149.78;49.12;49990.34;5074700;28;19920;-70
2022/06/14 09:33:13;;;;;;;;;;;;;;;-149.78;53.44;49970.78;5081195;28;19917;-70
2022/06/14 09:35:58;;;;;;;;;;;;;;;-149.78;51.66;49990.34;5078729;28;19920;-70
2022/06/14 09:38:26;;;;;;;;;;;;;;;-149.78;53.88;49986.44;5085499;28;19995;-70
2022/06/14 09:41:13;;;;;;;;;;;;;;;-149.78;55.34;49982.53;5086943;28;20325;-70
2022/06/14 09:43:42;;;;;;;;;;;;;;;-149.78;53.37;49998.19;5072799;28;19916;-70
2022/06/14 09:46:07;;;;;;;;;;;;;;;-149.78;54.96;49980.56;5072822;28;20302;-70
2022/06/14 09:48:51;;;;;;;;;;;;;;;-149.78;55.67;50004.03;5083458;28;19916;-70
2022/06/14 09:51:36;;;;;;;;;;;;;;;-149.78;55.32;50035.34;5089022;28;20020;-69
2022/06/14 09:54:21;;;;;;;;;;;;;;;-149.78;54.06;50021.63;5074604;28;20303;-70
2022/06/14 09:56:47;;;;;;;;;;;;;;;-149.78;53.83;49996.22;5089781;28;19951;-69
2022/06/14 09:59:15;;;;;;;;;;;;;;;-149.78;57.72;49982.53;5079382;28;20315;-70
2022/06/14 10:01:59;;;;;;;;;;;;;;;-149.78;56.96;49966.88;5079358;28;20034;-70
2022/06/14 10:04:34;;;;;;;;;;;;;;;-149.78;52.14;49990.34;5078133;28;19916;-69
2022/06/14 10:07:23;;;;;;;;;;;;;;;-149.78;49.67;49982.53;5088716;28;20270;-69
2022/06/14 10:10:07;;;;;;;;;;;;;;;-149.78;48.79;49955.16;5079598;28;20338;-70
2022/06/14 10:12:51;;;;;;;;;;;;;;;-149.78;46.31;49931.69;5087955;28;19993;-69
2022/06/14 10:15:27;;;;;;;;;;;;;;;-149.78;43.32;49927.78;5081812;28;19924;-70
2022/06/14 10:18:12;;;;;;;;;;;;;;;-149.78;46.06;49978.63;5074558;28;20384;-69
2022/06/14 10:20:49;;;;;;;;;;;;;;;-149.78;45.25;49931.69;5084229;28;20380;-69
2022/06/14 10:23:18;;;;;;;;;;;;;;;-149.78;45.56;49964.94;5085676;28;20267;-71
2022/06/14 10:28:48;;;;;;;;;;;;;;;-149.78;49.86;49966.88;5083234;28;20370;-70
2022/06/14 10:31:27;;;;;;;;;;;;;;;-149.78;45.44;49955.16;5085506;28;19923;-71
2022/06/14 10:33:57;;;;;;;;;;;;;;;-149.78;46.05;50002.09;5085183;28;20279;-77
2022/06/14 10:36:38;;;;;;;;;;;;;;;-149.78;48.55;49957.09;5077062;28;19923;-76
2022/06/14 10:39:09;;;;;;;;;;;;;;;-149.78;49.41;50006.00;5082380;28;19920;-75
2022/06/14 10:41:43;;;;;;;;;;;;;;;-149.78;49.47;49994.25;5079823;28;19920;-77
2022/06/14 10:44:14;;;;;;;;;;;;;;;-149.78;52.60;49966.88;5079236;28;19923;-79
2022/06/14 10:46:45;;;;;;;;;;;;;;;-149.78;45.48;49970.78;5083181;28;19961;-77
2022/06/14 10:49:26;;;;;;;;;;;;;;;-149.78;44.23;49896.50;5083760;28;19923;-75
2022/06/14 10:52:06;;;;;;;;;;;;;;;-149.78;45.02;49970.78;5083960;28;19923;-77
2022/06/14 10:54:55;;;;;;;;;;;;;;;-149.78;44.65;49951.25;5079256;28;19932;-77
2022/06/14 10:57:37;;;;;;;;;;;;;;;-149.78;47.18;49982.53;5064454;28;19952;-76
2022/06/14 11:00:03;;;;;;;;;;;;;;;-149.78;47.11;49947.34;5083446;28;20336;-74
2022/06/14 11:02:47;;;;;;;;;;;;;;;-149.78;49.42;49916.03;5079952;28;19943;-74
2022/06/14 11:05:37;;;;;;;;;;;;;;;-149.78;43.22;49927.78;5075426;28;20314;-74
2022/06/14 11:08:12;;;;;;;;;;;;;;;-149.78;40.72;49927.78;5075757;28;20607;-74
2022/06/14 11:10:46;;;;;;;;;;;;;;;-149.78;41.81;49892.56;5080901;28;20367;-75
2022/06/14 11:13:30;;;;;;;;;;;;;;;-149.78;40.33;49900.41;5076787;28;19924;-74
2022/06/14 11:16:07;;;;;;;;;;;;;;;-149.78;38.85;49873.03;5090414;28;20394;-74
2022/06/14 11:19:00;;;;;;;;;;;;;;;-149.78;39.20;49935.59;5072423;28;19923;-75
2022/06/14 11:21:44;;;;;;;;;;;;;;;-149.78;39.35;49896.50;5085764;28;19955;-72
2022/06/14 11:24:33;;;;;;;;;;;;;;;-149.78;42.37;49878.88;5101981;28;19934;-74
2022/06/14 11:27:03;;;;;;;;;;;;;;;-149.78;44.33;49955.16;5098680;28;19920;-74
2022/06/14 11:29:32;;;;;;;;;;;;;;;-149.78;44.32;49912.13;5100622;28;19919;-74
2022/06/14 11:32:08;;;;;;;;;;;;;;;-149.78;43.82;49978.63;5102381;28;19939;-73
2022/06/14 11:34:45;;;;;;;;;;;;;;;-149.78;43.33;49962.97;5099482;28;19928;-73
2022/06/14 11:37:35;;;;;;;;;;;;;;;-149.78;41.46;49959.06;5103046;28;20006;-73
2022/06/14 11:40:14;;;;;;;;;;;;;;;-149.78;43.29;49939.50;5098439;28;19924;-72
2022/06/14 11:42:59;;;;;;;;;;;;;;;-149.78;39.83;49888.66;5102589;28;19924;-70
2022/06/14 11:45:35;;;;;;;;;;;;;;;-149.78;41.34;49972.75;5097644;28;19954;-76
2022/06/14 11:48:07;;;;;;;;;;;;;;;-149.78;42.34;49939.50;5097460;28;19924;-75
2022/06/14 11:50:53;;;;;;;;;;;;;;;-149.78;44.32;49933.66;5100045;28;19923;-75
2022/06/14 11:53:25;;;;;;;;;;;;;;;-149.78;42.09;49927.78;5096893;28;20348;-77
2022/06/14 11:56:17;;;;;;;;;;;;;;;-149.78;41.48;49912.13;5094280;28;20007;-77
2022/06/14 11:59:01;;;;;;;;;;;;;;;-149.78;40.73;49935.59;5095113;28;19920;-75
2022/06/14 12:01:32;;;;;;;;;;;;;;;-149.78;40.01;49921.91;5099872;28;19916;-78
2022/06/14 12:04:11;;;;;;;;;;;;;;;-149.78;40.85;49912.13;5103862;28;20014;-76
2022/06/14 12:06:43;;;;;;;;;;;;;;;-149.78;40.55;49964.94;5087873;28;19916;-73
2022/06/14 12:09:17;;;;;;;;;;;;;;;-149.78;39.93;49929.72;5092221;28;19920;-71
2022/06/14 12:11:53;;;;;;;;;;;;;;;-149.78;41.36;49914.09;5083839;28;19917;-71
2022/06/14 12:14:22;;;;;;;;;;;;;;;-149.78;40.81;49980.56;5092166;28;19920;-71
2022/06/14 12:16:55;;;;;;;;;;;;;;;-149.78;41.44;49935.59;5082500;28;19920;-70
2022/06/14 12:19:24;;;;;;;;;;;;;;;-149.78;42.83;49916.03;5082979;28;20030;-71
2022/06/14 12:22:26;;;;;;;;;;;;;;;-149.78;39.41;49910.19;5075295;28;19920;-70
2022/06/14 12:27:41;;;;;;;;;;;;;;;-149.78;38.11;49945.38;5076666;28;19916;-70
2022/06/14 12:30:07;;;;;;;;;;;;;;;-149.78;38.77;49896.50;5080793;28;19917;-70
2022/06/14 12:32:39;;;;;;;;;;;;;;;-149.78;39.07;49908.22;5080347;28;19946;-70
2022/06/14 12:35:09;;;;;;;;;;;;;;;-149.78;40.60;49908.22;5094494;28;20036;-70
2022/06/14 12:37:35;;;;;;;;;;;;;;;-149.78;41.34;49927.78;5086861;28;19916;-70
2022/06/14 12:40:11;;;;;;;;;;;;;;;-149.78;41.23;49978.63;5081477;28;20359;-69
2022/06/14 12:42:40;;;;;;;;;;;;;;;-149.78;44.15;49931.69;5088419;28;20318;-70
2022/06/14 12:45:08;;;;;;;;;;;;;;;-149.78;41.29;49931.69;5081917;28;19923;-70
2022/06/14 12:47:34;;;;;;;;;;;;;;;-149.78;40.58;49947.34;5066929;28;20287;-70
2022/06/14 12:50:10;;;;;;;;;;;;;;;-149.78;39.73;49929.72;5087146;28;19926;-70
2022/06/14 12:52:39;;;;;;;;;;;;;;;-149.78;38.57;49916.03;5076991;28;20364;-70
2022/06/14 12:55:14;;;;;;;;;;;;;;;-149.78;38.66;49935.59;5084962;28;20387;-71
2022/06/14 12:57:46;;;;;;;;;;;;;;;-149.78;38.34;49876.94;5074143;28;20376;-70
2022/06/14 13:00:30;;;;;;;;;;;;;;;-149.78;38.81;49865.19;5081283;28;20279;-70
2022/06/14 13:03:15;;;;;;;;;;;;;;;-149.78;37.59;49912.13;5073751;28;19916;-70
2022/06/14 13:05:48;;;;;;;;;;;;;;;-149.78;37.35;49892.56;5061780;28;20379;-70
2022/06/14 13:08:13;;;;;;;;;;;;;;;-149.78;37.07;49880.84;5082927;28;19916;-70
2022/06/14 13:10:48;;;;;;;;;;;;;;;-149.78;36.86;49894.53;5090462;28;19923;-71
2022/06/14 13:13:32;;;;;;;;;;;;;;;-149.78;36.64;49939.50;5092262;28;19927;-70